createdAt,value
2018-09-12T00:01:19.188Z,99.90
2018-09-12T00:03:48.228Z,99.90
2018-09-12T00:06:17.069Z,99.90
2018-09-12T00:08:45.896Z,99.90
2018-09-12T00:11:14.986Z,99.90
2018-09-12T00:13:43.783Z,99.90
2018-09-12T00:16:12.662Z,99.90
2018-09-12T00:18:41.576Z,99.90
2018-09-12T00:21:10.437Z,99.90
2018-09-12T00:23:39.180Z,99.90
2018-09-12T00:26:07.994Z,99.90
2018-09-12T00:28:37.003Z,99.90
2018-09-12T00:31:06.016Z,99.90
2018-09-12T00:33:34.916Z,99.90
2018-09-12T00:36:03.756Z,99.90
2018-09-12T00:38:32.809Z,99.90
2018-09-12T00:41:02.357Z,99.90
2018-09-12T00:43:31.820Z,99.90
2018-09-12T00:46:01.317Z,99.90
2018-09-12T00:48:30.652Z,99.90
2018-09-12T00:51:00.224Z,99.90
2018-09-12T00:53:29.511Z,99.90
2018-09-12T00:55:59.650Z,99.90
2018-09-12T00:58:29.348Z,99.90
2018-09-12T01:00:58.804Z,99.90
2018-09-12T01:03:28.669Z,99.90
2018-09-12T01:06:00.145Z,99.90
2018-09-12T01:08:29.021Z,99.90
2018-09-12T01:10:57.907Z,99.90
2018-09-12T01:13:27.505Z,99.90
2018-09-12T01:15:56.310Z,99.90
2018-09-12T01:18:25.202Z,99.90
2018-09-12T01:20:53.994Z,99.90
2018-09-12T01:23:22.848Z,99.90
2018-09-12T01:25:51.702Z,99.90
2018-09-12T01:28:20.480Z,99.90
2018-09-12T01:30:49.375Z,99.90
2018-09-12T01:33:18.172Z,99.90
2018-09-12T01:35:46.972Z,99.90
2018-09-12T01:38:15.770Z,99.90
2018-09-12T01:40:44.569Z,99.90
2018-09-12T01:43:13.457Z,99.90
2018-09-12T01:45:42.294Z,99.90
2018-09-12T01:48:11.074Z,99.90
2018-09-12T01:50:39.835Z,99.90
2018-09-12T01:53:08.923Z,99.90
2018-09-12T01:55:38.012Z,99.90
2018-09-12T01:58:06.814Z,99.90
2018-09-12T02:00:40.228Z,99.90
2018-09-12T02:03:09.655Z,99.90
2018-09-12T02:05:38.946Z,99.90
2018-09-12T02:08:08.181Z,99.90
2018-09-12T02:10:36.958Z,99.90
2018-09-12T02:13:05.766Z,99.90
2018-09-12T02:15:34.573Z,99.90
2018-09-12T02:18:04.356Z,99.90
2018-09-12T02:20:33.153Z,99.90
2018-09-12T02:23:01.964Z,99.90
2018-09-12T02:25:30.750Z,99.90
2018-09-12T02:27:59.603Z,99.90
2018-09-12T02:30:28.778Z,99.90
2018-09-12T02:32:57.542Z,99.90
2018-09-12T02:35:26.379Z,99.90
2018-09-12T02:37:55.259Z,99.90
2018-09-12T02:40:24.009Z,99.90
2018-09-12T02:42:53.370Z,99.90
2018-09-12T02:45:22.453Z,99.90
2018-09-12T02:47:51.303Z,99.90
2018-09-12T02:50:20.056Z,99.90
2018-09-12T02:52:48.866Z,99.90
2018-09-12T02:55:17.772Z,99.90
2018-09-12T02:57:46.579Z,99.90
2018-09-12T03:00:15.335Z,99.90
2018-09-12T03:02:44.581Z,99.90
2018-09-12T03:05:13.531Z,99.90
2018-09-12T03:07:42.614Z,99.90
2018-09-12T03:10:11.395Z,99.90
2018-09-12T03:12:40.210Z,99.90
2018-09-12T03:15:09.029Z,99.90
2018-09-12T03:17:37.800Z,99.90
2018-09-12T03:20:06.839Z,99.90
2018-09-12T03:22:35.568Z,99.90
2018-09-12T03:25:04.375Z,99.90
2018-09-12T03:27:33.091Z,99.90
2018-09-12T03:30:01.835Z,99.90
2018-09-12T03:32:30.740Z,99.90
2018-09-12T03:34:59.462Z,99.90
2018-09-12T03:37:28.203Z,99.90
2018-09-12T03:39:56.981Z,99.90
2018-09-12T03:42:25.797Z,99.90
2018-09-12T03:44:54.752Z,99.90
2018-09-12T03:47:23.501Z,99.90
2018-09-12T03:49:52.325Z,99.90
2018-09-12T03:52:27.289Z,99.90
2018-09-12T03:54:56.150Z,99.90
2018-09-12T03:57:24.949Z,99.90
2018-09-12T03:59:53.716Z,99.90
2018-09-12T04:02:22.577Z,99.90
2018-09-12T04:04:51.319Z,99.90
2018-09-12T04:07:20.411Z,99.90
2018-09-12T04:09:49.178Z,99.90
2018-09-12T04:12:17.986Z,99.90
2018-09-12T04:14:46.728Z,99.90
2018-09-12T04:17:15.572Z,99.90
2018-09-12T04:19:44.451Z,99.90
2018-09-12T04:22:13.424Z,99.90
2018-09-12T04:24:44.968Z,99.90
2018-09-12T04:27:13.773Z,99.90
2018-09-12T04:29:42.582Z,99.90
2018-09-12T04:32:11.395Z,99.90
2018-09-12T04:34:40.373Z,99.90
2018-09-12T04:37:09.191Z,99.90
2018-09-12T04:39:38.003Z,99.90
2018-09-12T04:42:06.926Z,99.90
2018-09-12T04:44:35.855Z,99.90
2018-09-12T04:47:04.802Z,99.90
2018-09-12T04:49:33.660Z,99.90
2018-09-12T04:52:02.438Z,99.90
2018-09-12T04:54:31.229Z,99.90
2018-09-12T04:57:00.008Z,99.90
2018-09-12T04:59:28.848Z,99.90
2018-09-12T05:01:57.717Z,99.90
2018-09-12T05:04:26.505Z,99.90
2018-09-12T05:06:55.340Z,99.90
2018-09-12T05:09:24.249Z,99.90
2018-09-12T05:11:53.025Z,99.90
2018-09-12T05:14:21.898Z,99.90
2018-09-12T05:16:50.682Z,99.90
2018-09-12T05:19:19.442Z,99.90
2018-09-12T05:21:48.383Z,99.90
2018-09-12T05:24:17.191Z,99.90
2018-09-12T05:26:46.184Z,99.90
2018-09-12T05:29:14.898Z,99.90
2018-09-12T05:31:43.739Z,99.90
2018-09-12T05:34:12.508Z,99.90
2018-09-12T05:36:41.379Z,99.90
2018-09-12T05:39:11.410Z,99.90
2018-09-12T05:41:40.492Z,99.90
2018-09-12T05:44:09.400Z,99.90
2018-09-12T05:46:38.307Z,99.90
2018-09-12T05:49:07.248Z,99.90
2018-09-12T05:51:36.589Z,99.90
2018-09-12T05:54:05.434Z,99.90
2018-09-12T05:56:34.295Z,99.90
2018-09-12T05:59:04.118Z,99.90
2018-09-12T06:01:33.835Z,99.90
2018-09-12T06:04:02.888Z,99.90
2018-09-12T06:06:31.955Z,99.90
2018-09-12T06:09:01.464Z,99.90
2018-09-12T06:11:30.726Z,99.90
2018-09-12T06:13:59.781Z,99.90
2018-09-12T06:16:28.778Z,99.90
2018-09-12T06:18:57.807Z,99.90
2018-09-12T06:21:26.855Z,99.90
2018-09-12T06:23:56.519Z,99.90
2018-09-12T06:26:25.499Z,99.90
2018-09-12T06:28:54.656Z,99.90
2018-09-12T06:31:23.655Z,99.90
2018-09-12T06:33:52.744Z,99.90
2018-09-12T06:36:21.623Z,99.90
2018-09-12T06:38:50.805Z,99.90
2018-09-12T06:41:20.178Z,99.90
2018-09-12T06:43:49.501Z,99.90
2018-09-12T06:46:18.473Z,99.90
2018-09-12T06:48:47.445Z,99.90
2018-09-12T06:51:16.461Z,99.90
2018-09-12T06:53:45.412Z,99.90
2018-09-12T06:56:14.735Z,99.90
2018-09-12T06:58:43.843Z,99.90
2018-09-12T07:01:12.844Z,99.90
2018-09-12T07:03:41.755Z,99.90
2018-09-12T07:06:10.828Z,99.90
2018-09-12T07:08:39.868Z,99.90
2018-09-12T07:11:09.450Z,99.90
2018-09-12T07:13:38.382Z,99.90
2018-09-12T07:16:07.187Z,99.90
2018-09-12T07:18:36.015Z,99.90
2018-09-12T07:21:04.787Z,99.90
2018-09-12T07:23:33.630Z,99.90
2018-09-12T07:26:02.484Z,99.90
2018-09-12T07:28:31.225Z,99.90
2018-09-12T07:31:00.099Z,99.90
2018-09-12T07:33:28.846Z,99.90
2018-09-12T07:35:57.718Z,99.90
2018-09-12T07:38:26.531Z,99.90
2018-09-12T07:40:55.334Z,99.90
2018-09-12T07:43:24.956Z,99.90
2018-09-12T07:45:53.767Z,99.90
2018-09-12T07:48:22.640Z,99.90
2018-09-12T07:50:51.378Z,99.90
2018-09-12T07:53:20.345Z,99.90
2018-09-12T07:55:49.191Z,99.90
2018-09-12T07:58:17.981Z,99.90
2018-09-12T08:00:46.898Z,99.90
2018-09-12T08:03:15.691Z,99.90
2018-09-12T08:05:44.548Z,99.90
2018-09-12T08:08:13.415Z,99.90
2018-09-12T08:10:42.273Z,99.90
2018-09-12T08:13:11.272Z,99.90
2018-09-12T08:15:40.499Z,99.90
2018-09-12T08:18:09.854Z,99.90
2018-09-12T08:20:38.739Z,99.90
2018-09-12T08:23:07.568Z,99.90
2018-09-12T08:25:36.578Z,99.90
2018-09-12T08:28:05.391Z,99.90
2018-09-12T08:30:34.289Z,99.90
2018-09-12T08:33:03.134Z,99.90
2018-09-12T08:35:32.023Z,99.90
2018-09-12T08:38:01.097Z,99.90
2018-09-12T08:40:30.025Z,99.90
2018-09-12T08:42:58.829Z,99.90
2018-09-12T08:45:27.640Z,99.90
2018-09-12T08:47:56.534Z,99.90
2018-09-12T08:50:25.504Z,99.90
2018-09-12T08:52:55.343Z,99.90
2018-09-12T08:55:24.051Z,99.30
2018-09-12T08:57:52.865Z,98.10
2018-09-12T09:00:21.832Z,98.20
2018-09-12T09:02:50.703Z,98.30
2018-09-12T09:05:19.555Z,96.60
2018-09-12T09:07:48.347Z,96.70
2018-09-12T09:10:17.225Z,96.90
2018-09-12T09:12:46.017Z,94.90
2018-09-12T09:15:15.264Z,95.00
2018-09-12T09:17:44.215Z,94.90
2018-09-12T09:20:13.085Z,95.40
2018-09-12T09:22:41.943Z,94.90
2018-09-12T09:25:11.045Z,95.00
2018-09-12T09:27:40.187Z,94.80
2018-09-12T09:30:09.833Z,93.80
2018-09-12T09:32:39.611Z,93.50
2018-09-12T09:35:08.788Z,92.80
2018-09-12T09:37:37.893Z,92.60
2018-09-12T09:40:07.906Z,92.60
2018-09-12T09:42:36.792Z,93.70
2018-09-12T09:45:06.038Z,94.20
2018-09-12T09:47:34.774Z,94.50
2018-09-12T09:50:03.644Z,93.20
2018-09-12T09:52:32.597Z,93.60
2018-09-12T09:55:01.638Z,92.70
2018-09-12T09:57:30.304Z,93.90
2018-09-12T09:59:59.513Z,92.90
2018-09-12T10:02:33.781Z,92.70
2018-09-12T10:05:07.678Z,93.00
2018-09-12T10:07:41.641Z,93.30
2018-09-12T10:10:10.420Z,92.50
2018-09-12T10:12:39.316Z,93.00
2018-09-12T10:15:08.209Z,94.30
2018-09-12T10:17:36.982Z,93.60
2018-09-12T10:20:06.676Z,92.90
2018-09-12T10:22:35.594Z,91.50
2018-09-12T10:25:05.157Z,91.10
2018-09-12T10:27:34.283Z,91.20
2018-09-12T10:30:03.223Z,90.10
2018-09-12T10:32:32.073Z,89.90
2018-09-12T10:35:00.868Z,87.50
2018-09-12T10:37:29.785Z,87.80
2018-09-12T10:39:58.538Z,85.70
2018-09-12T10:42:27.326Z,86.20
2018-09-12T10:44:56.199Z,89.40
2018-09-12T10:47:24.996Z,88.10
2018-09-12T10:49:54.068Z,90.30
2018-09-12T10:52:22.826Z,88.30
2018-09-12T10:54:51.983Z,87.90
2018-09-12T10:57:21.168Z,87.80
2018-09-12T10:59:49.995Z,89.80
2018-09-12T11:02:18.962Z,87.90
2018-09-12T11:04:47.725Z,89.50
2018-09-12T11:07:16.533Z,90.00
2018-09-12T11:09:45.290Z,88.80
2018-09-12T11:12:14.245Z,90.10
2018-09-12T11:14:43.251Z,89.50
2018-09-12T11:17:11.994Z,87.50
2018-09-12T11:19:41.858Z,85.70
2018-09-12T11:22:11.898Z,88.20
2018-09-12T11:24:41.758Z,87.90
2018-09-12T11:27:11.938Z,87.80
2018-09-12T11:29:40.837Z,85.10
2018-09-12T11:32:10.530Z,86.10
2018-09-12T11:34:40.629Z,85.30
2018-09-12T11:37:10.493Z,86.40
2018-09-12T11:39:40.868Z,84.70
2018-09-12T11:42:09.943Z,84.70
2018-09-12T11:44:40.089Z,86.60
2018-09-12T11:47:09.958Z,85.50
2018-09-12T11:49:39.503Z,82.40
2018-09-12T11:52:09.017Z,82.20
2018-09-12T11:54:39.719Z,81.90
2018-09-12T11:57:08.475Z,82.50
2018-09-12T11:59:37.585Z,82.60
2018-09-12T12:02:07.417Z,81.60
2018-09-12T12:04:37.932Z,81.20
2018-09-12T12:07:07.714Z,79.20
2018-09-12T12:09:39.247Z,80.40
2018-09-12T12:12:08.128Z,80.20
2018-09-12T12:14:36.935Z,77.50
2018-09-12T12:17:05.785Z,77.00
2018-09-12T12:19:34.622Z,78.10
2018-09-12T12:22:03.607Z,80.80
2018-09-12T12:24:32.506Z,78.80
2018-09-12T12:27:01.489Z,78.60
2018-09-12T12:29:30.440Z,78.30
2018-09-12T12:31:59.642Z,80.40
2018-09-12T12:34:28.640Z,76.30
2018-09-12T12:36:57.553Z,76.60
2018-09-12T12:39:26.405Z,75.00
2018-09-12T12:41:55.294Z,74.20
2018-09-12T12:44:24.259Z,74.40
2018-09-12T12:46:53.648Z,73.60
2018-09-12T12:49:22.632Z,75.10
2018-09-12T12:51:51.686Z,74.60
2018-09-12T12:54:20.540Z,72.90
2018-09-12T12:56:49.480Z,72.50
2018-09-12T12:59:18.622Z,73.30
2018-09-12T13:01:47.481Z,72.80
2018-09-12T13:04:16.457Z,70.10
2018-09-12T13:06:45.443Z,70.30
2018-09-12T13:09:14.363Z,70.10
2018-09-12T13:11:43.290Z,69.90
2018-09-12T13:14:12.120Z,71.20
2018-09-12T13:16:41.023Z,72.00
2018-09-12T13:19:09.823Z,71.90
2018-09-12T13:21:38.880Z,70.70
2018-09-12T13:24:07.760Z,70.40
2018-09-12T13:26:36.814Z,68.50
2018-09-12T13:29:07.032Z,69.80
2018-09-12T13:31:37.113Z,68.50
2018-09-12T13:34:06.702Z,67.50
2018-09-12T13:36:37.520Z,69.30
2018-09-12T13:39:13.112Z,69.30
2018-09-12T13:41:42.178Z,69.40
2018-09-12T13:44:11.266Z,67.30
2018-09-12T13:46:41.734Z,70.10
2018-09-12T13:49:10.820Z,67.90
2018-09-12T13:51:40.515Z,67.10
2018-09-12T13:54:11.070Z,67.80
2018-09-12T13:56:40.073Z,69.50
2018-09-12T13:59:09.233Z,68.30
2018-09-12T14:01:38.110Z,66.20
2018-09-12T14:04:07.119Z,66.30
2018-09-12T14:06:36.035Z,68.20
2018-09-12T14:09:07.809Z,66.40
2018-09-12T14:11:37.050Z,68.80
2018-09-12T14:14:06.076Z,67.60
2018-09-12T14:16:35.016Z,67.40
2018-09-12T14:19:04.160Z,66.20
2018-09-12T14:21:34.092Z,69.60
2018-09-12T14:24:03.696Z,68.40
2018-09-12T14:26:32.593Z,66.30
2018-09-12T14:29:01.595Z,65.90
2018-09-12T14:31:30.640Z,66.90
2018-09-12T14:33:59.482Z,66.60
2018-09-12T14:36:28.774Z,67.50
2018-09-12T14:38:57.811Z,67.20
2018-09-12T14:41:26.771Z,66.10
2018-09-12T14:43:55.684Z,65.90
2018-09-12T14:46:24.621Z,63.60
2018-09-12T14:48:54.249Z,65.50
2018-09-12T14:51:23.068Z,66.30
2018-09-12T14:53:51.873Z,66.70
2018-09-12T14:56:20.712Z,66.10
2018-09-12T14:58:49.551Z,65.20
2018-09-12T15:01:18.450Z,66.00
2018-09-12T15:03:47.280Z,68.60
2018-09-12T15:06:16.146Z,68.60
2018-09-12T15:08:45.011Z,68.90
2018-09-12T15:11:14.205Z,68.90
2018-09-12T15:13:43.620Z,67.70
2018-09-12T15:16:12.401Z,68.20
2018-09-12T15:18:41.604Z,67.00
2018-09-12T15:21:10.374Z,66.10
2018-09-12T15:23:39.351Z,66.00
2018-09-12T15:26:08.729Z,65.00
2018-09-12T15:28:37.831Z,65.20
2018-09-12T15:31:08.512Z,65.80
2018-09-12T15:33:37.811Z,66.50
2018-09-12T15:36:06.602Z,66.00
2018-09-12T15:38:36.831Z,67.30
2018-09-12T15:41:05.947Z,68.70
2018-09-12T15:43:36.495Z,70.30
2018-09-12T15:46:06.058Z,72.50
2018-09-12T15:48:36.665Z,71.40
2018-09-12T15:51:05.710Z,69.10
2018-09-12T15:53:35.533Z,69.90
2018-09-12T15:56:06.086Z,69.80
2018-09-12T15:58:35.650Z,70.60
2018-09-12T16:01:07.217Z,68.30
2018-09-12T16:03:39.071Z,70.70
2018-09-12T16:06:08.199Z,72.40
2018-09-12T16:08:37.857Z,74.60
2018-09-12T16:11:07.769Z,75.40
2018-09-12T16:13:36.681Z,77.80
2018-09-12T16:16:05.741Z,78.10
2018-09-12T16:18:35.029Z,77.00
2018-09-12T16:21:03.823Z,78.80
2018-09-12T16:23:36.252Z,80.40
2018-09-12T16:26:06.517Z,81.90
2018-09-12T16:28:36.040Z,83.90
2018-09-12T16:31:05.761Z,84.40
2018-09-12T16:33:36.416Z,85.40
2018-09-12T16:36:06.697Z,84.80
2018-09-12T16:38:37.394Z,81.60
2018-09-12T16:41:06.613Z,89.70
2018-09-12T16:43:35.422Z,88.10
2018-09-12T16:46:04.995Z,88.50
2018-09-12T16:48:35.150Z,85.50
2018-09-12T16:51:04.089Z,90.50
2018-09-12T16:53:33.010Z,91.80
2018-09-12T16:56:02.081Z,93.10
2018-09-12T16:58:30.835Z,93.80
2018-09-12T17:00:59.681Z,94.40
2018-09-12T17:03:28.463Z,95.60
2018-09-12T17:05:57.435Z,96.40
2018-09-12T17:08:26.363Z,97.60
2018-09-12T17:10:55.161Z,98.10
2018-09-12T17:13:23.911Z,97.80
2018-09-12T17:15:52.724Z,98.30
2018-09-12T17:18:21.679Z,98.60
2018-09-12T17:20:50.442Z,99.60
2018-09-12T17:23:19.375Z,99.90
2018-09-12T17:25:48.146Z,99.90
2018-09-12T17:28:16.966Z,99.90
2018-09-12T17:30:45.980Z,99.90
2018-09-12T17:33:14.699Z,99.90
2018-09-12T17:35:43.434Z,99.90
2018-09-12T17:38:12.730Z,99.90
2018-09-12T17:40:41.681Z,99.90
2018-09-12T17:43:10.887Z,99.90
2018-09-12T17:45:39.720Z,99.90
2018-09-12T17:48:08.584Z,99.90
2018-09-12T17:50:37.399Z,99.90
2018-09-12T17:53:06.873Z,99.90
2018-09-12T17:55:36.068Z,99.90
2018-09-12T17:58:06.180Z,99.90
2018-09-12T18:00:35.287Z,99.90
2018-09-12T18:03:04.196Z,99.90
2018-09-12T18:05:33.010Z,99.90
2018-09-12T18:08:02.164Z,99.90
2018-09-12T18:10:31.006Z,99.90
2018-09-12T18:12:59.970Z,99.90
2018-09-12T18:15:28.776Z,99.90
2018-09-12T18:17:57.643Z,99.90
2018-09-12T18:20:26.465Z,99.90
2018-09-12T18:22:55.325Z,99.90
2018-09-12T18:25:24.521Z,99.90
2018-09-12T18:27:53.257Z,99.90
2018-09-12T18:30:22.379Z,99.90
2018-09-12T18:32:51.211Z,99.90
2018-09-12T18:35:20.061Z,99.90
2018-09-12T18:37:48.932Z,99.90
2018-09-12T18:40:18.308Z,99.90
2018-09-12T18:42:47.207Z,99.90
2018-09-12T18:45:16.222Z,99.90
2018-09-12T18:47:45.282Z,99.90
2018-09-12T18:50:14.153Z,99.90
2018-09-12T18:52:42.991Z,99.90
2018-09-12T18:55:11.736Z,99.90
2018-09-12T18:57:40.520Z,99.90
2018-09-12T19:00:09.339Z,99.90
2018-09-12T19:02:38.647Z,99.90
2018-09-12T19:05:08.626Z,99.90
2018-09-12T19:07:37.886Z,99.90
2018-09-12T19:10:06.842Z,99.90
2018-09-12T19:12:35.770Z,99.90
2018-09-12T19:15:05.049Z,99.90
2018-09-12T19:17:34.858Z,99.90
2018-09-12T19:20:04.123Z,99.90
2018-09-12T19:22:33.074Z,99.90
2018-09-12T19:25:02.049Z,99.90
2018-09-12T19:27:31.155Z,99.90
2018-09-12T19:29:59.934Z,99.90
2018-09-12T19:32:29.217Z,99.90
2018-09-12T19:34:58.085Z,99.90
2018-09-12T19:37:27.055Z,99.90
2018-09-12T19:39:56.361Z,99.90
2018-09-12T19:42:25.359Z,99.90
2018-09-12T19:44:54.362Z,99.90
2018-09-12T19:47:23.409Z,99.90
2018-09-12T19:49:52.560Z,99.90
2018-09-12T19:52:21.422Z,99.90
2018-09-12T19:54:50.511Z,99.90
2018-09-12T19:57:21.012Z,99.90
2018-09-12T19:59:50.000Z,99.90
2018-09-12T20:02:28.374Z,99.90
2018-09-12T20:04:59.770Z,99.90
2018-09-12T20:07:29.759Z,99.90
2018-09-12T20:09:58.607Z,99.90
2018-09-12T20:12:27.463Z,99.90
2018-09-12T20:14:56.300Z,99.90
2018-09-12T20:17:25.262Z,99.90
2018-09-12T20:19:54.163Z,99.90
2018-09-12T20:22:23.126Z,99.90
2018-09-12T20:24:52.011Z,99.90
2018-09-12T20:27:20.911Z,99.90
2018-09-12T20:29:50.642Z,99.90
2018-09-12T20:32:19.469Z,99.90
2018-09-12T20:34:48.294Z,99.90
2018-09-12T20:37:17.038Z,99.90
2018-09-12T20:39:45.891Z,99.90
2018-09-12T20:42:14.857Z,99.90
2018-09-12T20:44:44.218Z,99.90
2018-09-12T20:47:13.084Z,99.90
2018-09-12T20:49:42.011Z,99.90
2018-09-12T20:52:11.080Z,99.90
2018-09-12T20:54:40.057Z,99.90
2018-09-12T20:57:08.983Z,99.90
2018-09-12T20:59:37.820Z,99.90
2018-09-12T21:02:07.038Z,99.90
2018-09-12T21:04:35.833Z,99.90
2018-09-12T21:07:05.168Z,99.90
2018-09-12T21:09:33.939Z,99.90
2018-09-12T21:12:03.087Z,99.90
2018-09-12T21:14:31.978Z,99.90
2018-09-12T21:17:01.543Z,99.90
2018-09-12T21:19:32.072Z,99.90
2018-09-12T21:22:01.323Z,99.90
2018-09-12T21:24:31.065Z,99.90
2018-09-12T21:27:00.094Z,99.90
2018-09-12T21:29:29.116Z,99.90
2018-09-12T21:31:59.235Z,99.90
2018-09-12T21:34:28.272Z,99.90
2018-09-12T21:36:57.051Z,99.90
2018-09-12T21:39:25.816Z,99.90
2018-09-12T21:41:54.540Z,99.90
2018-09-12T21:44:23.458Z,99.90
2018-09-12T21:46:52.282Z,99.90
2018-09-12T21:49:21.049Z,99.90
2018-09-12T21:51:50.004Z,99.90
2018-09-12T21:54:18.779Z,99.90
2018-09-12T21:56:48.445Z,99.90
2018-09-12T21:59:17.940Z,99.90
2018-09-12T22:01:47.005Z,99.90
2018-09-12T22:04:15.912Z,99.90
2018-09-12T22:06:45.011Z,99.90
2018-09-12T22:09:15.069Z,99.90
2018-09-12T22:11:44.183Z,99.90
2018-09-12T22:14:13.236Z,99.90
2018-09-12T22:16:42.202Z,99.90
2018-09-12T22:19:11.327Z,99.90
2018-09-12T22:21:40.278Z,99.90
2018-09-12T22:24:09.500Z,99.90
2018-09-12T22:26:38.779Z,99.90
2018-09-12T22:29:07.975Z,99.90
2018-09-12T22:31:36.756Z,99.90
2018-09-12T22:34:05.703Z,99.90
2018-09-12T22:36:34.908Z,99.90
2018-09-12T22:39:05.054Z,99.90
2018-09-12T22:41:33.940Z,99.90
2018-09-12T22:44:02.907Z,99.90
2018-09-12T22:46:31.892Z,99.90
2018-09-12T22:49:00.992Z,99.90
2018-09-12T22:51:30.054Z,99.90
2018-09-12T22:53:58.953Z,99.90
2018-09-12T22:56:27.751Z,99.90
2018-09-12T22:58:56.515Z,99.90
2018-09-12T23:01:25.416Z,99.90
2018-09-12T23:03:54.173Z,99.90
2018-09-12T23:06:22.967Z,99.90
2018-09-12T23:08:51.826Z,99.90
2018-09-12T23:11:20.662Z,99.90
2018-09-12T23:13:49.807Z,99.90
2018-09-12T23:16:18.624Z,99.90
2018-09-12T23:18:47.404Z,99.90
2018-09-12T23:21:16.255Z,99.90
2018-09-12T23:23:45.664Z,99.90
2018-09-12T23:26:14.616Z,99.90
2018-09-12T23:28:43.480Z,99.90
2018-09-12T23:31:12.230Z,99.90
2018-09-12T23:33:41.015Z,99.90
2018-09-12T23:36:09.885Z,99.90
2018-09-12T23:38:38.822Z,99.90
2018-09-12T23:41:07.554Z,99.90
2018-09-12T23:43:36.326Z,99.90
2018-09-12T23:46:05.219Z,99.90
2018-09-12T23:48:34.029Z,99.90
2018-09-12T23:51:03.103Z,99.90
2018-09-12T23:53:31.873Z,99.90
2018-09-12T23:56:00.763Z,99.90
2018-09-12T23:58:29.574Z,99.90
